Vendome Street — A8YI6 — position and weather

sailwx.info

Track history (hours):
 
Tides and Currents Weather Stations Pressure Air Temp Water Temp Dewpoint Dewpoint Depression Visibility Wind Speed Wind Dir Waves Ship Positions

Vendome Street

Last reported at 2017-Jun-18 05:27 UTC. Time now 2017-Jun-27 10:24 UTC.
Position N 09°33' W 079°56'.
Warning: this ship's position is 9 days out of date.

Length 177 m; draft 7.4 m.

Type: Ship. MMSI: 636015064.

Date/timePositionNaut miles runAvg speedWind from/ knotsBaromVisibWave heightAir tempDewpointWater temp
2017-Jun-18 05:27N 09°33' W 079°56'4 9.1
2017-Jun-18 04:59N 09°29' W 079°56'0 0.5
2017-Jun-18 04:30N 09°29' W 079°56'0 0.0
2017-Jun-18 04:00N 09°29' W 079°56'0 0.0
2017-Jun-18 03:30N 09°29' W 079°56'0 0.0
2017-Jun-18 03:00N 09°29' W 079°56'0 0.0
2017-Jun-18 02:27N 09°29' W 079°56'0 0.0
2017-Jun-18 02:00N 09°29' W 079°56'0 0.0
2017-Jun-18 01:30N 09°29' W 079°56'0 0.0
2017-Jun-18 01:00N 09°29' W 079°56'0 0.0
2017-Jun-18 00:30N 09°29' W 079°56'0 0.0
2017-Jun-18 00:00N 09°29' W 079°56'0 0.0
2017-Jun-17 23:30N 09°29' W 079°56'0 0.0
2017-Jun-17 23:00N 09°29' W 079°56'0 0.0
2017-Jun-17 22:30N 09°29' W 079°56'0 0.0
2017-Jun-17 22:00N 09°29' W 079°56'0 0.0
2017-Jun-17 21:27N 09°29' W 079°56'0 0.0
2017-Jun-17 21:00N 09°29' W 079°56'0 0.0
2017-Jun-17 20:30N 09°29' W 079°56'0 0.0
2017-Jun-17 19:51N 09°29' W 079°56'0 0.0
2017-Jun-17 19:30N 09°29' W 079°56'0 0.0
2017-Jun-17 19:00N 09°29' W 079°56'0 0.2
2017-Jun-17 18:29N 09°29' W 079°56'2 3.2
2017-Jun-17 18:00N 09°29' W 079°54'3 4.7
2017-Jun-17 17:27N 09°26' W 079°55'4 9.9
2017-Jun-17 17:00N 09°22' W 079°55'4 8.5
2017-Jun-17 16:30N 09°18' W 079°55'1 2.7
2017-Jun-17 16:00N 09°17' W 079°55'0 0.4
2017-Jun-17 15:30N 09°16' W 079°55'0 0.6
2017-Jun-17 15:00N 09°16' W 079°55'5 4.8
2017-Jun-17 13:59N 09°12' W 079°53'  
Track history (hours):
 
Tides and Currents Weather Stations Pressure Air Temp Water Temp Dewpoint Dewpoint Depression Visibility Wind Speed Wind Dir Waves Ship Positions

Vendome Street

Last reported at 2017-Jun-18 05:27 UTC. Time now 2017-Jun-27 10:24 UTC.
Position N 09°33' W 079°56'.
Warning: this ship's position is 9 days out of date.

Length 177 m; draft 7.4 m.

Type: Ship. MMSI: 636015064.

Date/timePositionNaut miles runAvg speedWind from/ knotsBaromVisibWave heightAir tempDewpointWater temp
2017-Jun-18 05:27N 09°33' W 079°56'4 9.1
2017-Jun-18 04:59N 09°29' W 079°56'0 0.5
2017-Jun-18 04:30N 09°29' W 079°56'0 0.0
2017-Jun-18 04:00N 09°29' W 079°56'0 0.0
2017-Jun-18 03:30N 09°29' W 079°56'0 0.0
2017-Jun-18 03:00N 09°29' W 079°56'0 0.0
2017-Jun-18 02:27N 09°29' W 079°56'0 0.0
2017-Jun-18 02:00N 09°29' W 079°56'0 0.0
2017-Jun-18 01:30N 09°29' W 079°56'0 0.0
2017-Jun-18 01:00N 09°29' W 079°56'0 0.0
2017-Jun-18 00:30N 09°29' W 079°56'0 0.0
2017-Jun-18 00:00N 09°29' W 079°56'0 0.0
2017-Jun-17 23:30N 09°29' W 079°56'0 0.0
2017-Jun-17 23:00N 09°29' W 079°56'0 0.0
2017-Jun-17 22:30N 09°29' W 079°56'0 0.0
2017-Jun-17 22:00N 09°29' W 079°56'0 0.0
2017-Jun-17 21:27N 09°29' W 079°56'0 0.0
2017-Jun-17 21:00N 09°29' W 079°56'0 0.0
2017-Jun-17 20:30N 09°29' W 079°56'0 0.0
2017-Jun-17 19:51N 09°29' W 079°56'0 0.0
2017-Jun-17 19:30N 09°29' W 079°56'0 0.0
2017-Jun-17 19:00N 09°29' W 079°56'0 0.2
2017-Jun-17 18:29N 09°29' W 079°56'2 3.2
2017-Jun-17 18:00N 09°29' W 079°54'3 4.7
2017-Jun-17 17:27N 09°26' W 079°55'4 9.9
2017-Jun-17 17:00N 09°22' W 079°55'4 8.5
2017-Jun-17 16:30N 09°18' W 079°55'1 2.7
2017-Jun-17 16:00N 09°17' W 079°55'0 0.4
2017-Jun-17 15:30N 09°16' W 079°55'0 0.6
2017-Jun-17 15:00N 09°16' W 079°55'5 4.8
2017-Jun-17 13:59N 09°12' W 079°53'  

Dump ship's entire track history